Time;durP1;ratioP1;P1;durP2;ratioP2;P2;SDS_P1;SDS_P2;PMS_P1;PMS_P2;Temp;Humidity;BMP_temperature;BMP_pressure;BME280_temperature;BME280_humidity;BME280_pressure;Samples;Min_cycle;Max_cycle;Signal;HPM_P1;HPM_P2
2023/05/28 00:01:55;;;;;;;17.92;3.92;;;12.40;99.90;;;;;;5114064;28;20400;-70
2023/05/28 00:04:21;;;;;;;13.07;4.10;;;12.40;99.90;;;;;;5113809;28;20581;-69
2023/05/28 00:06:50;;;;;;;12.82;4.22;;;12.40;99.90;;;;;;5115451;28;20057;-70
2023/05/28 00:09:16;;;;;;;8.25;3.70;;;12.30;99.90;;;;;;5118139;28;20048;-69
2023/05/28 00:11:42;;;;;;;10.47;4.33;;;12.30;99.90;;;;;;5117972;28;20035;-70
2023/05/28 00:14:08;;;;;;;8.90;3.70;;;12.20;99.90;;;;;;5118008;28;20039;-69
2023/05/28 00:16:35;;;;;;;14.33;4.10;;;12.20;99.90;;;;;;5117660;28;20051;-68
2023/05/28 00:19:02;;;;;;;9.95;3.97;;;12.20;99.90;;;;;;5117725;28;20043;-69
2023/05/28 00:21:27;;;;;;;;;;;12.00;99.90;;;;;;5118638;28;20039;-70
2023/05/28 00:23:53;;;;;;;12.07;3.90;;;12.10;99.90;;;;;;5117633;28;19964;-70
2023/05/28 00:26:18;;;;;;;8.43;3.30;;;12.00;99.90;;;;;;5117737;28;20039;-70
2023/05/28 00:28:44;;;;;;;12.48;3.97;;;12.00;99.90;;;;;;5117669;28;20039;-70
2023/05/28 00:31:10;;;;;;;10.70;4.23;;;11.90;99.90;;;;;;5117581;28;20035;-69
2023/05/28 00:33:36;;;;;;;13.70;4.25;;;11.90;99.90;;;;;;5117517;28;20047;-70
2023/05/28 00:36:01;;;;;;;7.60;3.75;;;11.90;99.90;;;;;;5117239;28;20375;-69
2023/05/28 00:38:27;;;;;;;13.07;4.40;;;11.80;99.90;;;;;;5117863;28;20039;-70
2023/05/28 00:40:54;;;;;;;8.00;3.97;;;11.70;99.90;;;;;;5116213;28;20218;-70
2023/05/28 00:43:20;;;;;;;12.80;4.60;;;11.80;99.90;;;;;;5117321;28;20490;-69
2023/05/28 00:45:48;;;;;;;12.57;4.82;;;11.70;99.90;;;;;;5117345;28;20437;-70
2023/05/28 00:48:14;;;;;;;15.57;3.75;;;11.60;99.90;;;;;;5117220;28;20165;-69
2023/05/28 00:50:41;;;;;;;14.73;4.30;;;11.90;99.90;;;;;;5117267;27;20036;-69
2023/05/28 00:53:07;;;;;;;10.30;3.65;;;11.50;99.90;;;;;;5117373;28;20039;-70
2023/05/28 00:55:34;;;;;;;11.23;3.60;;;11.80;99.90;;;;;;5117101;28;20434;-69
2023/05/28 00:58:05;;;;;;;12.40;4.28;;;11.50;99.90;;;;;;5117288;28;20082;-70
2023/05/28 01:00:32;;;;;;;10.20;4.43;;;11.50;99.90;;;;;;5117125;28;20074;-70
2023/05/28 01:02:58;;;;;;;9.80;3.55;;;11.40;99.90;;;;;;5116614;28;20047;-70
2023/05/28 01:05:24;;;;;;;10.80;3.90;;;11.40;99.90;;;;;;5117236;28;20054;-70
2023/05/28 01:07:50;;;;;;;11.87;4.00;;;11.40;99.90;;;;;;5116570;28;20479;-70
2023/05/28 01:10:16;;;;;;;9.45;4.18;;;11.40;99.90;;;;;;5117114;28;20055;-70
2023/05/28 01:12:43;;;;;;;11.10;4.28;;;11.30;99.90;;;;;;5116706;28;20340;-70
2023/05/28 01:15:10;;;;;;;9.68;4.35;;;11.30;99.90;;;;;;5117300;28;20036;-70
2023/05/28 01:17:38;;;;;;;9.85;3.53;;;11.30;99.90;;;;;;5116352;28;20035;-71
2023/05/28 01:20:05;;;;;;;12.70;4.18;;;11.20;99.90;;;;;;5116661;28;20515;-70
2023/05/28 01:22:37;;;;;;;15.38;4.43;;;11.20;99.90;;;;;;5116808;28;20542;-70
2023/05/28 01:25:09;;;;;;;10.32;4.32;;;11.20;99.90;;;;;;5116641;28;20089;-70
2023/05/28 01:27:38;;;;;;;9.25;4.40;;;11.20;99.90;;;;;;5116538;28;20118;-70
2023/05/28 01:30:14;;;;;;;11.10;3.50;;;11.20;99.90;;;;;;5116372;28;20391;-70
2023/05/28 01:32:39;;;;;;;11.93;3.90;;;11.20;99.90;;;;;;5115811;28;20379;-71
2023/05/28 01:35:06;;;;;;;7.87;3.53;;;11.10;99.90;;;;;;5116354;28;20040;-70
2023/05/28 01:37:36;;;;;;;11.95;4.03;;;11.10;99.90;;;;;;5116297;28;20379;-70
2023/05/28 01:40:02;;;;;;;11.60;3.97;;;11.10;99.90;;;;;;5116276;28;20039;-69
2023/05/28 01:42:29;;;;;;;;;;;11.10;99.90;;;;;;5115633;28;20544;-70
2023/05/28 01:44:57;;;;;;;14.05;4.35;;;11.10;99.90;;;;;;5115896;28;20420;-70
2023/05/28 01:47:23;;;;;;;13.10;4.25;;;11.10;99.90;;;;;;5116382;28;20043;-69
2023/05/28 01:49:49;;;;;;;15.57;4.22;;;11.00;99.90;;;;;;5115862;28;20490;-70
2023/05/28 01:52:15;;;;;;;8.33;3.70;;;11.00;99.90;;;;;;5116303;28;20411;-70
2023/05/28 01:54:41;;;;;;;9.50;4.33;;;11.00;99.90;;;;;;5116039;28;20494;-69
2023/05/28 01:57:07;;;;;;;12.35;4.22;;;11.00;99.90;;;;;;5115915;28;20032;-70
2023/05/28 01:59:32;;;;;;;14.55;4.53;;;10.90;99.90;;;;;;5115692;28;20142;-70
2023/05/28 02:01:58;;;;;;;7.50;4.10;;;10.90;99.90;;;;;;5115854;28;20035;-69
2023/05/28 02:04:24;;;;;;;13.65;4.20;;;10.90;99.90;;;;;;5116164;28;20044;-69
2023/05/28 02:06:51;;;;;;;10.57;3.90;;;10.80;99.90;;;;;;5115848;28;20047;-70
2023/05/28 02:09:16;;;;;;;14.68;4.38;;;10.80;99.90;;;;;;5115732;28;20051;-69
2023/05/28 02:11:42;;;;;;;11.15;3.92;;;10.80;99.90;;;;;;5115665;28;20064;-69
2023/05/28 02:14:09;;;;;;;13.38;4.00;;;10.80;99.90;;;;;;5115690;28;20036;-70
2023/05/28 02:16:35;;;;;;;7.85;4.18;;;10.70;99.90;;;;;;5115610;28;20467;-70
2023/05/28 02:19:00;;;;;;;12.98;4.68;;;10.70;99.90;;;;;;5115569;27;20065;-70
2023/05/28 02:21:28;;;;;;;11.00;4.05;;;10.90;99.90;;;;;;5115446;28;20035;-70
2023/05/28 02:23:53;;;;;;;11.13;4.88;;;10.70;99.90;;;;;;5115636;28;20070;-70
2023/05/28 02:26:20;;;;;;;10.63;4.25;;;10.70;99.90;;;;;;5115224;28;20487;-69
2023/05/28 02:28:45;;;;;;;13.50;4.85;;;10.60;99.90;;;;;;5114640;28;20063;-69
2023/05/28 02:31:12;;;;;;;15.13;4.95;;;10.60;99.90;;;;;;5115614;28;20108;-69
2023/05/28 02:33:38;;;;;;;10.95;4.93;;;10.60;99.90;;;;;;5115055;28;20467;-70
2023/05/28 02:36:06;;;;;;;11.60;4.53;;;10.60;99.90;;;;;;5115118;28;20387;-70
2023/05/28 02:38:32;;;;;;;16.65;4.88;;;10.70;99.90;;;;;;5115283;28;20048;-71
2023/05/28 02:40:57;;;;;;;17.35;5.00;;;10.70;99.90;;;;;;5115095;28;20468;-69
2023/05/28 02:43:23;;;;;;;13.63;5.05;;;10.70;99.90;;;;;;5114926;28;20035;-69
2023/05/28 02:45:48;;;;;;;11.20;4.68;;;10.70;99.90;;;;;;5114956;28;20043;-70
2023/05/28 02:48:14;;;;;;;11.27;4.35;;;10.80;99.90;;;;;;5114962;28;20043;-69
2023/05/28 02:50:40;;;;;;;10.70;4.15;;;10.70;99.90;;;;;;5114919;28;20115;-69
2023/05/28 02:53:05;;;;;;;13.80;4.97;;;10.70;99.90;;;;;;5114848;28;20044;-71
2023/05/28 02:55:31;;;;;;;12.52;5.07;;;10.70;99.90;;;;;;5114851;28;20038;-69
2023/05/28 02:57:56;;;;;;;13.73;4.78;;;10.70;99.90;;;;;;5114729;28;20036;-69
2023/05/28 03:00:22;;;;;;;12.05;5.13;;;10.70;99.90;;;;;;5115309;28;20035;-69
2023/05/28 03:02:48;;;;;;;13.35;4.35;;;10.70;99.90;;;;;;5114663;28;20043;-70
2023/05/28 03:05:14;;;;;;;16.65;4.60;;;10.70;99.90;;;;;;5114529;28;20050;-70
2023/05/28 03:07:40;;;;;;;12.00;5.07;;;10.80;99.90;;;;;;5114939;28;20052;-70
2023/05/28 03:10:07;;;;;;;16.83;5.13;;;10.80;99.90;;;;;;5114500;28;20469;-70
2023/05/28 03:12:32;;;;;;;11.90;4.40;;;10.80;99.90;;;;;;5114520;28;20101;-69
2023/05/28 03:14:58;;;;;;;10.93;4.60;;;11.30;99.90;;;;;;5114651;28;20456;-69
2023/05/28 03:17:23;;;;;;;11.02;5.22;;;10.80;99.90;;;;;;5114429;28;20051;-70
2023/05/28 03:19:49;;;;;;;12.95;5.00;;;10.80;99.90;;;;;;5114701;28;20067;-70
2023/05/28 03:22:15;;;;;;;14.57;4.80;;;10.80;99.90;;;;;;5114311;28;20126;-70
2023/05/28 03:24:40;;;;;;;12.95;5.85;;;10.80;99.90;;;;;;5114245;28;20456;-70
2023/05/28 03:27:06;;;;;;;10.65;4.82;;;10.80;99.90;;;;;;5114017;28;20441;-69
2023/05/28 03:29:31;;;;;;;14.93;5.70;;;10.80;99.90;;;;;;5114135;28;20078;-69
2023/05/28 03:31:57;;;;;;;18.02;5.63;;;10.90;99.90;;;;;;5114544;28;20386;-69
2023/05/28 03:34:23;;;;;;;14.02;4.78;;;10.80;99.90;;;;;;5114128;28;20476;-70
2023/05/28 03:36:49;;;;;;;10.68;4.32;;;10.80;99.90;;;;;;5114211;28;20035;-69
2023/05/28 03:39:15;;;;;;;11.52;4.68;;;10.80;99.90;;;;;;5114195;28;20039;-70
2023/05/28 03:41:41;;;;;;;9.52;4.18;;;10.80;99.90;;;;;;5114087;28;20040;-70
2023/05/28 03:44:07;;;;;;;13.90;4.82;;;10.80;99.90;;;;;;5114126;28;20459;-70
2023/05/28 03:46:32;;;;;;;12.45;4.63;;;10.80;99.90;;;;;;5113994;28;20077;-70
2023/05/28 03:48:58;;;;;;;11.60;5.10;;;10.90;99.90;;;;;;5114090;28;20039;-70
2023/05/28 03:51:24;;;;;;;15.20;5.00;;;10.90;99.90;;;;;;5114174;28;20047;-69
2023/05/28 03:53:50;;;;;;;9.20;4.75;;;10.90;99.90;;;;;;5113786;28;20463;-69
2023/05/28 03:56:16;;;;;;;10.55;5.25;;;11.50;99.90;;;;;;5114267;28;20104;-70
2023/05/28 03:58:42;;;;;;;11.60;4.73;;;11.00;99.90;;;;;;5114004;28;20437;-69
2023/05/28 04:01:07;;;;;;;15.43;4.55;;;11.00;99.90;;;;;;5113581;28;20082;-70
2023/05/28 04:03:33;;;;;;;9.23;4.53;;;11.00;99.90;;;;;;5114257;28;20043;-69
2023/05/28 04:06:00;;;;;;;12.68;4.28;;;11.00;99.90;;;;;;5113548;28;20370;-70
2023/05/28 04:08:26;;;;;;;14.13;4.88;;;11.10;99.90;;;;;;5113636;28;20077;-69
2023/05/28 04:10:51;;;;;;;11.38;3.92;;;11.10;99.90;;;;;;5113817;28;20475;-70
2023/05/28 04:13:17;;;;;;;12.70;4.90;;;11.10;99.90;;;;;;5113805;28;20035;-69
2023/05/28 04:15:43;;;;;;;13.38;4.40;;;11.10;99.90;;;;;;5113889;28;20103;-70
2023/05/28 04:18:08;;;;;;;11.07;4.70;;;11.20;99.90;;;;;;5113787;28;20036;-70
2023/05/28 04:20:35;;;;;;;12.80;3.95;;;11.20;99.90;;;;;;5113605;28;20084;-70
2023/05/28 04:23:01;;;;;;;11.85;5.10;;;11.30;99.90;;;;;;5113682;28;20093;-70
2023/05/28 04:25:28;;;;;;;11.40;4.13;;;11.30;99.90;;;;;;5113669;28;20071;-70
2023/05/28 04:27:54;;;;;;;12.07;4.78;;;11.80;99.90;;;;;;5113657;28;20043;-70
2023/05/28 04:30:22;;;;;;;11.90;4.95;;;11.30;99.90;;;;;;5114134;28;20485;-69
2023/05/28 04:32:51;;;;;;;13.60;4.78;;;11.40;99.90;;;;;;5113598;28;20043;-69
2023/05/28 04:35:16;;;;;;;12.65;4.25;;;11.40;99.90;;;;;;5112672;28;20038;-71
2023/05/28 04:37:42;;;;;;;19.00;5.75;;;11.40;99.90;;;;;;5113569;28;20405;-69
2023/05/28 04:40:11;;;;;;;10.90;4.30;;;11.80;99.90;;;;;;5113556;28;20039;-70
2023/05/28 04:42:37;;;;;;;8.90;4.72;;;11.50;99.90;;;;;;5113533;28;20042;-69
2023/05/28 04:45:04;;;;;;;13.20;5.00;;;11.50;99.90;;;;;;5113874;28;20035;-70
2023/05/28 04:47:30;;;;;;;11.50;4.97;;;11.50;99.90;;;;;;5113857;28;20047;-70
2023/05/28 04:49:57;;;;;;;10.52;4.22;;;11.50;99.90;;;;;;5113476;28;20032;-69
2023/05/28 04:52:23;;;;;;;15.73;5.13;;;12.30;99.90;;;;;;5114494;28;20039;-69
2023/05/28 04:54:49;;;;;;;9.93;4.10;;;11.50;99.90;;;;;;5117235;28;20032;-70
2023/05/28 04:57:15;;;;;;;12.82;4.68;;;11.50;99.90;;;;;;5117137;28;20536;-69
2023/05/28 04:59:41;;;;;;;12.80;4.47;;;12.00;99.90;;;;;;5117113;28;20092;-70
2023/05/28 05:02:07;;;;;;;11.55;4.45;;;11.50;99.90;;;;;;5117071;28;20032;-70
2023/05/28 05:04:32;;;;;;;14.82;4.75;;;11.80;99.90;;;;;;5116778;28;20084;-69
2023/05/28 05:06:58;;;;;;;15.88;5.13;;;12.00;99.90;;;;;;5117122;28;20064;-69
2023/05/28 05:09:24;;;;;;;13.02;4.93;;;11.60;99.90;;;;;;5116888;28;20043;-69
2023/05/28 05:11:50;;;;;;;13.32;4.00;;;11.60;99.90;;;;;;5117036;28;20380;-71
2023/05/28 05:14:15;;;;;;;12.00;4.72;;;11.60;99.90;;;;;;5117277;28;20055;-69
2023/05/28 05:16:41;;;;;;;16.25;5.07;;;11.70;99.90;;;;;;5116844;28;20376;-70
2023/05/28 05:19:07;;;;;;;12.15;4.47;;;11.70;99.90;;;;;;5116750;28;20038;-70
2023/05/28 05:21:32;;;;;;;12.40;4.50;;;11.90;99.90;;;;;;5116880;28;20043;-70
2023/05/28 05:23:58;;;;;;;15.23;4.65;;;11.90;99.90;;;;;;5116755;28;20040;-70
2023/05/28 05:26:23;;;;;;;13.80;4.85;;;12.00;99.90;;;;;;5116440;28;20032;-70
2023/05/28 05:28:50;;;;;;;12.60;4.65;;;12.10;99.90;;;;;;5116568;28;20108;-69
2023/05/28 05:31:15;;;;;;;13.98;4.93;;;12.20;99.90;;;;;;5116485;28;20487;-70
2023/05/28 05:33:41;;;;;;;15.90;5.45;;;12.30;99.90;;;;;;5116706;28;20074;-70
2023/05/28 05:36:08;;;;;;;9.25;4.47;;;12.40;99.90;;;;;;5116270;28;20460;-69
2023/05/28 05:38:34;;;;;;;10.68;4.80;;;12.50;99.90;;;;;;5116354;28;20039;-70
2023/05/28 05:41:00;;;;;;;7.23;3.67;;;12.60;99.90;;;;;;5116262;28;20035;-70
2023/05/28 05:43:26;;;;;;;12.18;5.15;;;12.80;99.90;;;;;;5116455;28;20036;-70
2023/05/28 05:45:51;;;;;;;13.02;4.75;;;12.80;99.90;;;;;;5116204;28;20081;-70
2023/05/28 05:48:17;;;;;;;8.00;3.63;;;12.80;99.90;;;;;;5116177;28;20040;-70
2023/05/28 05:50:57;;;;;;;10.05;3.85;;;12.90;99.90;;;;;;5115873;28;20056;-70
2023/05/28 05:53:24;;;;;;;9.23;4.07;;;13.10;99.90;;;;;;5116067;27;20035;-69
2023/05/28 05:55:50;;;;;;;8.23;3.90;;;13.20;99.90;;;;;;5115960;27;20040;-70
2023/05/28 05:58:16;;;;;;;11.50;4.10;;;13.30;99.90;;;;;;5116374;28;20039;-69
2023/05/28 06:00:41;;;;;;;10.50;3.67;;;13.40;99.90;;;;;;5115941;28;20732;-69
2023/05/28 06:03:07;;;;;;;9.63;3.23;;;13.60;99.90;;;;;;5115702;28;20039;-69
2023/05/28 06:05:34;;;;;;;11.13;4.43;;;14.00;99.90;;;;;;5115012;28;20354;-70
2023/05/28 06:08:02;;;;;;;9.65;3.72;;;14.00;99.90;;;;;;5115766;28;20062;-70
2023/05/28 06:10:28;;;;;;;9.95;4.43;;;14.20;99.90;;;;;;5115659;28;20055;-70
2023/05/28 06:12:54;;;;;;;6.77;3.63;;;14.40;99.90;;;;;;5115640;28;20463;-69
2023/05/28 06:15:20;;;;;;;14.00;4.07;;;14.50;99.90;;;;;;5115620;28;20043;-70
2023/05/28 06:17:45;;;;;;;6.75;3.38;;;14.60;99.90;;;;;;5115614;28;20112;-70
2023/05/28 06:20:11;;;;;;;9.82;3.65;;;14.80;99.90;;;;;;5115655;28;20043;-70
2023/05/28 06:22:36;;;;;;;12.45;3.60;;;15.00;99.90;;;;;;5115427;28;20043;-71
2023/05/28 06:25:02;;;;;;;7.47;3.28;;;15.20;99.90;;;;;;5115351;28;20448;-69
2023/05/28 06:27:28;;;;;;;10.02;3.50;;;15.20;99.90;;;;;;5115654;28;20113;-70
2023/05/28 06:29:54;;;;;;;9.93;3.40;;;15.40;99.90;;;;;;5115284;28;20147;-69
2023/05/28 06:32:19;;;;;;;8.70;2.90;;;15.60;99.90;;;;;;5115240;28;20075;-70
2023/05/28 06:34:45;;;;;;;11.82;3.35;;;15.70;99.90;;;;;;5115244;28;20039;-70
2023/05/28 06:37:11;;;;;;;8.47;3.73;;;15.60;99.90;;;;;;5114911;28;20041;-70
2023/05/28 06:39:37;;;;;;;5.68;2.90;;;15.90;99.90;;;;;;5115109;28;20122;-70
2023/05/28 06:42:03;;;;;;;7.57;3.33;;;16.00;99.90;;;;;;5115285;28;20093;-70
2023/05/28 06:44:28;;;;;;;5.90;2.90;;;16.20;99.90;;;;;;5115000;28;20456;-70
2023/05/28 06:46:54;;;;;;;8.63;3.40;;;16.40;99.90;;;;;;5115191;28;20039;-71
2023/05/28 06:49:20;;;;;;;8.67;3.20;;;16.50;99.90;;;;;;5115094;28;20039;-70
2023/05/28 06:51:46;;;;;;;15.15;3.60;;;16.60;99.90;;;;;;5114968;28;20036;-69
2023/05/28 06:54:11;;;;;;;7.93;3.47;;;16.60;99.90;;;;;;5113801;28;20112;-70
2023/05/28 06:56:37;;;;;;;9.37;3.47;;;16.60;99.90;;;;;;5114877;28;20368;-70
2023/05/28 06:59:02;;;;;;;6.77;3.17;;;16.60;99.90;;;;;;5114734;28;20589;-70
2023/05/28 07:01:28;;;;;;;6.50;2.47;;;16.60;99.90;;;;;;5114755;28;20097;-70
2023/05/28 07:03:54;;;;;;;11.87;3.30;;;16.60;99.90;;;;;;5114803;28;20035;-70
2023/05/28 07:06:19;;;;;;;6.87;2.97;;;16.40;99.90;;;;;;5114416;28;20509;-71
2023/05/28 07:08:45;;;;;;;8.27;2.97;;;16.30;99.90;;;;;;5114535;28;20379;-70
2023/05/28 07:11:11;;;;;;;7.97;3.43;;;16.20;99.90;;;;;;5114554;28;20093;-70
2023/05/28 07:13:40;;;;;;;8.93;3.28;;;16.20;99.90;;;;;;5114893;28;20078;-71
2023/05/28 07:16:07;;;;;;;8.55;3.38;;;16.30;99.90;;;;;;5114151;28;20110;-71
2023/05/28 07:18:32;;;;;;;9.40;3.33;;;16.30;99.90;;;;;;5114456;28;20069;-71
2023/05/28 07:20:58;;;;;;;6.90;3.00;;;16.40;99.90;;;;;;5114126;28;20039;-70
2023/05/28 07:23:24;;;;;;;10.07;3.00;;;16.50;99.90;;;;;;5114294;27;20027;-70
2023/05/28 07:25:50;;;;;;;13.13;3.93;;;16.70;99.90;;;;;;5114301;28;20128;-70
2023/05/28 07:28:15;;;;;;;9.63;3.67;;;16.80;99.90;;;;;;5114304;28;20039;-70
2023/05/28 07:30:41;;;;;;;10.63;3.10;;;17.10;99.90;;;;;;5114314;28;20048;-71
2023/05/28 07:33:07;;;;;;;8.70;3.00;;;17.20;99.90;;;;;;5114188;28;20040;-70
2023/05/28 07:35:33;;;;;;;5.60;3.00;;;17.30;99.90;;;;;;5114686;28;20047;-71
2023/05/28 07:38:00;;;;;;;10.00;3.30;;;17.50;99.90;;;;;;5112994;28;20089;-70
2023/05/28 07:40:26;;;;;;;8.65;2.90;;;17.60;99.90;;;;;;5114651;28;20473;-69
2023/05/28 07:42:51;;;;;;;10.27;2.90;;;17.70;99.90;;;;;;5114134;28;20028;-70
2023/05/28 07:45:17;;;;;;;7.97;2.70;;;17.80;99.90;;;;;;5114103;28;20066;-70
2023/05/28 07:47:43;;;;;;;10.10;3.00;;;18.00;99.90;;;;;;5113972;28;20079;-71
2023/05/28 07:50:09;;;;;;;8.33;3.43;;;18.10;99.90;;;;;;5114041;28;20348;-70
2023/05/28 07:52:36;;;;;;;8.95;2.83;;;18.20;99.90;;;;;;5113982;28;20085;-70
2023/05/28 07:55:03;;;;;;;8.10;2.97;;;18.40;99.90;;;;;;5113959;28;20048;-70
2023/05/28 07:57:29;;;;;;;5.88;2.45;;;18.50;99.90;;;;;;5113759;28;20540;-68
2023/05/28 07:59:55;;;;;;;8.55;2.90;;;18.60;99.90;;;;;;5113638;28;20498;-68
2023/05/28 08:02:21;;;;;;;9.75;3.05;;;18.70;99.90;;;;;;5113907;28;20084;-67
2023/05/28 08:04:48;;;;;;;10.37;3.00;;;18.90;99.90;;;;;;5114045;28;20467;-68
2023/05/28 08:07:14;;;;;;;9.00;3.25;;;19.00;99.90;;;;;;5113494;28;20134;-70
2023/05/28 08:09:41;;;;;;;11.53;3.27;;;19.10;99.90;;;;;;5112629;28;20144;-70
2023/05/28 08:12:07;;;;;;;6.97;2.95;;;19.10;99.90;;;;;;5114188;28;20080;-68
2023/05/28 08:14:33;;;;;;;9.45;3.15;;;19.10;99.90;;;;;;5113758;28;20040;-69
2023/05/28 08:16:59;;;;;;;9.67;3.17;;;19.20;99.90;;;;;;5113636;28;20067;-69
2023/05/28 08:19:25;;;;;;;10.73;3.80;;;19.20;99.90;;;;;;5113558;28;20039;-70
2023/05/28 08:21:51;;;;;;;8.75;3.42;;;19.30;99.90;;;;;;5113379;28;20034;-70
2023/05/28 08:24:18;;;;;;;7.30;3.20;;;19.40;99.90;;;;;;5113737;28;20039;-69
2023/05/28 08:26:44;;;;;;;9.15;3.10;;;19.30;99.90;;;;;;5113342;28;20540;-70
2023/05/28 08:29:10;;;;;;;9.45;2.78;;;19.40;99.90;;;;;;5117946;28;20039;-69
2023/05/28 08:31:36;;;;;;;9.10;3.07;;;19.50;99.90;;;;;;5117663;28;20042;-69
2023/05/28 08:34:01;;;;;;;10.10;3.13;;;19.60;99.90;;;;;;5117733;28;20043;-70
2023/05/28 08:36:27;;;;;;;6.83;2.90;;;19.70;99.90;;;;;;5117492;28;20035;-70
2023/05/28 08:38:53;;;;;;;8.17;3.27;;;19.70;99.90;;;;;;5117200;28;20428;-70
2023/05/28 08:41:19;;;;;;;6.47;2.97;;;19.70;99.90;;;;;;5117538;28;20039;-70
2023/05/28 08:43:45;;;;;;;10.87;3.40;;;19.80;99.90;;;;;;5117645;28;20046;-69
2023/05/28 08:46:11;;;;;;;9.80;3.05;;;19.90;99.90;;;;;;5117360;27;20047;-69
2023/05/28 08:48:40;;;;;;;13.97;3.83;;;20.00;99.90;;;;;;5117373;28;20040;-69
2023/05/28 08:51:06;;;;;;;9.13;3.10;;;20.00;99.90;;;;;;5117438;28;20040;-69
2023/05/28 08:53:39;;;;;;;6.50;2.90;;;20.10;99.90;;;;;;5117252;28;20184;-69
2023/05/28 08:56:06;;;;;;;10.05;3.15;;;20.10;99.90;;;;;;5117520;28;20040;-70
2023/05/28 08:58:36;;;;;;;6.43;3.05;;;20.20;99.90;;;;;;5117085;28;20067;-69
2023/05/28 09:01:06;;;;;;;9.68;3.00;;;20.20;99.90;;;;;;5117130;28;20039;-70
2023/05/28 09:03:33;;;;;;;7.43;2.65;;;20.40;99.90;;;;;;5117130;28;20043;-70
2023/05/28 09:05:58;;;;;;;7.65;2.65;;;20.30;99.90;;;;;;5116786;28;20374;-68
2023/05/28 09:08:24;;;;;;;8.70;2.83;;;20.30;99.90;;;;;;5116590;28;20055;-68
2023/05/28 09:10:50;;;;;;;10.50;3.80;;;20.40;99.90;;;;;;5117026;28;20028;-69
2023/05/28 09:13:20;;;;;;;12.03;2.87;;;20.40;99.90;;;;;;5117140;28;20394;-69
2023/05/28 09:15:53;;;;;;;9.73;2.88;;;20.50;99.90;;;;;;5116796;28;20079;-68
2023/05/28 09:18:22;;;;;;;8.70;3.10;;;20.60;99.90;;;;;;5116804;28;20062;-69
2023/05/28 09:20:49;;;;;;;9.55;2.95;;;20.60;99.90;;;;;;5117362;28;20031;-70
2023/05/28 09:23:20;;;;;;;8.35;2.67;;;20.70;99.90;;;;;;5116646;28;20035;-69
2023/05/28 09:25:46;;;;;;;5.38;2.55;;;20.70;99.90;;;;;;5116588;28;20043;-70
2023/05/28 09:28:15;;;;;;;7.33;2.53;;;20.90;99.90;;;;;;5116528;28;20036;-68
2023/05/28 09:30:41;;;;;;;7.55;3.42;;;21.00;99.90;;;;;;5116482;28;20501;-69
2023/05/28 09:33:08;;;;;;;9.87;3.07;;;21.10;99.90;;;;;;5116522;28;20122;-70
2023/05/28 09:35:35;;;;;;;11.55;3.35;;;21.10;99.90;;;;;;5115206;28;20051;-70
2023/05/28 09:38:10;;;;;;;8.20;2.88;;;21.30;99.90;;;;;;5116016;28;20483;-69
2023/05/28 09:40:39;;;;;;;6.35;2.70;;;21.40;99.90;;;;;;5116408;28;20122;-71
2023/05/28 09:43:06;;;;;;;7.50;3.50;;;21.40;99.90;;;;;;5116337;28;20371;-69
2023/05/28 09:45:33;;;;;;;7.57;2.97;;;21.40;99.90;;;;;;5116069;28;20084;-69
2023/05/28 09:47:59;;;;;;;;;;;21.50;99.90;;;;;;5116604;28;20043;-69
2023/05/28 09:50:25;;;;;;;10.18;2.83;;;21.50;99.90;;;;;;5116167;28;19916;-70
2023/05/28 09:52:54;;;;;;;12.45;3.60;;;21.70;99.90;;;;;;5116169;28;20044;-69
2023/05/28 09:55:24;;;;;;;7.35;3.15;;;21.60;99.90;;;;;;5115997;28;20046;-70
2023/05/28 09:58:02;;;;;;;6.50;3.08;;;21.60;99.90;;;;;;5116064;28;20031;-69
2023/05/28 10:01:00;;;;;;;8.90;3.35;;;21.60;99.90;;;;;;5115687;28;20040;-70
2023/05/28 10:03:36;;;;;;;6.93;3.50;;;21.40;99.90;;;;;;5103461;28;20048;-69
2023/05/28 10:06:06;;;;;;;9.23;3.17;;;21.50;99.90;;;;;;5115941;28;20508;-70
2023/05/28 10:08:39;;;;;;;5.88;2.80;;;21.60;99.90;;;;;;5115567;27;20048;-69
2023/05/28 10:11:13;;;;;;;9.82;3.33;;;21.60;99.90;;;;;;5115897;28;20051;-71
2023/05/28 10:13:40;;;;;;;9.02;2.85;;;21.70;99.90;;;;;;5116027;28;20039;-70
2023/05/28 10:16:06;;;;;;;7.75;3.00;;;21.70;99.90;;;;;;5115721;28;20370;-69
2023/05/28 10:18:32;;;;;;;11.07;3.58;;;21.80;99.90;;;;;;5115619;28;20047;-70
2023/05/28 10:20:58;;;;;;;6.75;3.30;;;21.80;99.90;;;;;;5115517;28;20035;-69
2023/05/28 10:23:25;;;;;;;6.60;3.40;;;21.80;99.90;;;;;;5115162;28;20073;-69
2023/05/28 10:25:50;;;;;;;;;;;21.80;99.90;;;;;;5115798;28;20089;-70
2023/05/28 10:28:16;;;;;;;5.53;2.90;;;22.00;99.90;;;;;;5115405;28;20336;-70
2023/05/28 10:30:42;;;;;;;6.93;3.08;;;22.00;99.90;;;;;;5115335;28;20047;-70
2023/05/28 10:33:11;;;;;;;10.07;3.33;;;22.20;99.90;;;;;;5115251;28;20035;-69
2023/05/28 10:35:52;;;;;;;7.25;3.33;;;22.30;99.90;;;;;;5115198;28;20087;-69
2023/05/28 10:38:18;;;;;;;5.85;2.78;;;22.40;99.90;;;;;;5115650;28;20040;-69
2023/05/28 10:40:44;;;;;;;7.90;2.88;;;22.40;99.90;;;;;;5114985;28;20036;-68
2023/05/28 10:43:37;;;;;;;6.80;2.77;;;22.50;99.90;;;;;;5115295;28;20122;-70
2023/05/28 10:46:03;;;;;;;7.25;2.88;;;22.50;99.90;;;;;;5114940;28;20082;-69
2023/05/28 10:48:31;;;;;;;7.25;3.00;;;22.40;99.90;;;;;;5115038;28;20075;-69
2023/05/28 10:51:00;;;;;;;5.80;2.60;;;22.40;99.90;;;;;;5114389;28;20118;-69
2023/05/28 10:53:27;;;;;;;7.28;3.05;;;22.40;99.90;;;;;;5114617;28;20475;-68
2023/05/28 10:55:55;;;;;;;7.25;2.65;;;22.50;99.90;;;;;;5114872;28;20432;-70
2023/05/28 10:58:28;;;;;;;5.68;2.50;;;22.40;99.50;;;;;;5114738;28;20035;-70
2023/05/28 11:01:12;;;;;;;5.70;2.75;;;22.40;99.40;;;;;;5114703;28;20086;-70
2023/05/28 11:03:42;;;;;;;9.32;2.92;;;22.50;99.90;;;;;;5115057;27;20093;-71
2023/05/28 11:06:10;;;;;;;6.90;3.15;;;22.50;99.10;;;;;;5114259;28;20537;-70
2023/05/28 11:08:47;;;;;;;8.25;3.28;;;22.50;98.80;;;;;;5114625;28;20125;-70
2023/05/28 11:11:14;;;;;;;;;;;22.50;98.90;;;;;;5114908;28;20047;-70
2023/05/28 11:13:48;;;;;;;6.20;2.60;;;22.40;99.70;;;;;;5114629;28;19922;-69
2023/05/28 11:16:17;;;;;;;7.03;2.88;;;22.60;98.90;;;;;;5114543;28;20054;-70
2023/05/28 11:19:01;;;;;;;5.47;2.22;;;22.50;97.70;;;;;;5114458;28;20043;-71
2023/05/28 11:21:27;;;;;;;8.93;2.75;;;22.60;97.10;;;;;;5114419;28;20040;-69
2023/05/28 11:24:04;;;;;;;6.27;2.80;;;22.60;97.70;;;;;;5114254;28;20044;-70
2023/05/28 11:26:32;;;;;;;7.43;2.78;;;22.80;97.10;;;;;;5114638;28;20040;-70
2023/05/28 11:28:58;;;;;;;5.68;2.60;;;23.00;97.80;;;;;;5114845;28;20040;-70
2023/05/28 11:31:24;;;;;;;5.20;2.83;;;23.10;97.30;;;;;;5114352;28;20046;-69
2023/05/28 11:33:50;;;;;;;5.57;2.55;;;23.10;97.10;;;;;;5114372;28;20387;-70
2023/05/28 11:36:18;;;;;;;8.02;3.17;;;23.10;96.00;;;;;;5114188;28;20088;-70
2023/05/28 11:38:44;;;;;;;5.80;2.70;;;23.00;95.80;;;;;;5114207;28;20126;-69
2023/05/28 11:41:09;;;;;;;6.17;2.20;;;23.10;96.20;;;;;;5114169;28;20075;-69
2023/05/28 11:43:35;;;;;;;6.33;2.97;;;23.20;96.20;;;;;;5114139;28;20035;-70
2023/05/28 11:46:01;;;;;;;6.70;2.93;;;23.00;95.10;;;;;;5114039;28;20134;-69
2023/05/28 11:48:27;;;;;;;6.63;3.03;;;23.10;95.10;;;;;;5114048;28;20391;-70
2023/05/28 11:51:00;;;;;;;9.10;2.75;;;23.10;95.40;;;;;;5114052;28;20039;-70
2023/05/28 11:53:43;;;;;;;6.45;2.83;;;23.20;95.00;;;;;;5114408;28;20118;-70
2023/05/28 11:56:10;;;;;;;6.68;2.22;;;23.30;95.70;;;;;;5114003;28;20078;-71
2023/05/28 11:58:41;;;;;;;7.43;2.85;;;23.20;94.90;;;;;;5113911;28;20046;-69
2023/05/28 12:01:07;;;;;;;9.48;2.92;;;23.20;94.80;;;;;;5114064;28;20043;-69
2023/05/28 12:03:33;;;;;;;9.75;2.90;;;23.20;94.50;;;;;;5117059;28;20043;-70
2023/05/28 12:05:59;;;;;;;6.65;2.63;;;23.30;94.60;;;;;;5118081;28;20063;-70
2023/05/28 12:08:26;;;;;;;6.07;2.50;;;23.60;95.50;;;;;;5118358;28;20047;-69
2023/05/28 12:10:52;;;;;;;5.75;2.58;;;23.80;95.00;;;;;;5118049;28;20436;-69
2023/05/28 12:13:17;;;;;;;4.77;2.33;;;23.70;93.30;;;;;;5118012;28;20032;-69
2023/05/28 12:15:43;;;;;;;9.10;2.83;;;23.70;92.70;;;;;;5118053;28;20085;-70
2023/05/28 12:18:09;;;;;;;4.87;2.40;;;23.60;93.90;;;;;;5116952;28;20131;-70
2023/05/28 12:20:39;;;;;;;5.97;2.40;;;23.60;92.50;;;;;;5117950;28;20729;-70
2023/05/28 12:23:09;;;;;;;4.55;2.40;;;23.40;92.00;;;;;;5117854;28;20122;-69
2023/05/28 12:25:47;;;;;;;6.25;2.58;;;23.50;92.40;;;;;;5117664;28;20035;-69
2023/05/28 12:28:22;;;;;;;5.50;2.20;;;23.60;92.00;;;;;;5117778;28;20076;-70
2023/05/28 12:30:51;;;;;;;5.28;2.38;;;23.70;92.60;;;;;;5117695;28;20383;-69
2023/05/28 12:33:17;;;;;;;5.25;2.22;;;23.90;92.80;;;;;;5118088;28;20039;-70
2023/05/28 12:35:42;;;;;;;3.17;1.97;;;23.80;91.50;;;;;;5117627;28;20501;-69
2023/05/28 12:38:09;;;;;;;3.60;2.17;;;23.90;92.20;;;;;;5117574;28;20417;-70
2023/05/28 12:40:34;;;;;;;5.10;2.55;;;23.90;91.50;;;;;;5117586;28;20040;-69
2023/05/28 12:43:00;;;;;;;3.33;1.90;;;24.00;91.30;;;;;;5117659;28;20375;-69